createdAt,value
2017-09-27T00:01:11.043Z,96082.84
2017-09-27T00:03:40.091Z,96087.17
2017-09-27T00:06:09.161Z,96084.10
2017-09-27T00:08:38.200Z,96080.88
2017-09-27T00:11:07.259Z,96080.05
2017-09-27T00:13:36.380Z,96076.50
2017-09-27T00:16:05.554Z,96076.64
2017-09-27T00:18:34.582Z,96073.91
2017-09-27T00:21:03.621Z,96074.19
2017-09-27T00:23:32.674Z,96069.59
2017-09-27T00:26:01.743Z,96074.02
2017-09-27T00:28:30.826Z,96074.77
2017-09-27T00:30:59.862Z,96076.32
2017-09-27T00:33:28.906Z,96074.63
2017-09-27T00:35:58.851Z,96076.18
2017-09-27T00:38:27.943Z,96071.30
2017-09-27T00:40:56.990Z,96074.66
2017-09-27T00:43:26.039Z,96068.86
2017-09-27T00:45:55.082Z,96075.36
2017-09-27T00:48:31.177Z,96073.54
2017-09-27T00:51:00.472Z,96071.88
2017-09-27T00:53:29.510Z,96073.21
2017-09-27T00:55:58.566Z,96072.15
2017-09-27T00:58:27.627Z,96072.78
2017-09-27T01:00:56.726Z,96076.30
2017-09-27T01:03:25.851Z,96075.20
2017-09-27T01:05:55.096Z,96076.84
2017-09-27T01:08:24.151Z,96075.70
2017-09-27T01:10:53.199Z,96080.91
2017-09-27T01:13:22.259Z,96082.71
2017-09-27T01:15:51.298Z,96084.42
2017-09-27T01:18:20.352Z,96081.60
2017-09-27T01:20:49.468Z,96079.06
2017-09-27T01:23:18.595Z,96079.55
2017-09-27T01:25:47.651Z,96080.53
2017-09-27T01:28:16.695Z,96078.27
2017-09-27T01:30:45.748Z,96076.92
2017-09-27T01:33:14.790Z,96078.42
2017-09-27T01:35:43.832Z,96076.09
2017-09-27T01:38:12.900Z,96075.59
2017-09-27T01:40:41.979Z,96076.07
2017-09-27T01:43:12.931Z,96076.56
2017-09-27T01:45:41.966Z,96077.98
2017-09-27T01:48:11.086Z,96082.39
2017-09-27T01:50:40.219Z,96085.86
2017-09-27T01:53:09.254Z,96087.88
2017-09-27T01:55:38.304Z,96093.22
2017-09-27T01:58:07.335Z,96092.33
2017-09-27T02:00:36.382Z,96087.41
2017-09-27T02:03:05.411Z,96089.69
2017-09-27T02:05:34.499Z,96086.08
2017-09-27T02:08:03.558Z,96084.27
2017-09-27T02:10:32.624Z,96086.02
2017-09-27T02:13:01.662Z,96085.89
2017-09-27T02:15:30.698Z,96087.16
2017-09-27T02:17:59.755Z,96091.02
2017-09-27T02:20:28.800Z,96091.92
2017-09-27T02:22:57.874Z,96097.14
2017-09-27T02:25:26.919Z,96092.52
2017-09-27T02:27:55.967Z,96089.64
2017-09-27T02:30:25.047Z,96088.28
2017-09-27T02:32:54.114Z,96090.45
2017-09-27T02:35:23.156Z,96088.03
2017-09-27T02:37:52.246Z,96090.02
2017-09-27T02:40:21.254Z,96086.36
2017-09-27T02:42:50.304Z,96088.23
2017-09-27T02:45:19.352Z,96083.79
2017-09-27T02:47:48.399Z,96081.51
2017-09-27T02:50:19.471Z,96083.64
2017-09-27T02:52:48.517Z,96088.08
2017-09-27T02:55:17.567Z,96089.44
2017-09-27T02:57:46.620Z,96092.27
2017-09-27T03:00:15.711Z,96096.27
2017-09-27T03:02:44.757Z,96096.20
2017-09-27T03:05:13.920Z,96094.39
2017-09-27T03:07:43.038Z,96091.80
2017-09-27T03:10:16.447Z,96094.38
2017-09-27T03:12:46.454Z,96095.45
2017-09-27T03:15:15.550Z,96091.48
2017-09-27T03:17:44.594Z,96091.94
2017-09-27T03:20:14.561Z,96084.54
2017-09-27T03:22:43.594Z,96084.76
2017-09-27T03:25:12.669Z,96086.27
2017-09-27T03:27:41.759Z,96083.59
2017-09-27T03:30:10.783Z,96088.51
2017-09-27T03:32:39.853Z,96086.44
2017-09-27T03:35:08.967Z,96086.77
2017-09-27T03:37:38.011Z,96088.84
2017-09-27T03:40:07.080Z,96086.96
2017-09-27T03:42:36.251Z,96082.08
2017-09-27T03:45:06.294Z,96083.44
2017-09-27T03:47:35.346Z,96076.56
2017-09-27T03:50:04.391Z,96083.61
2017-09-27T03:52:33.439Z,96085.16
2017-09-27T03:55:02.504Z,96086.55
2017-09-27T03:57:31.554Z,96088.04
2017-09-27T04:00:00.608Z,96085.42
2017-09-27T04:02:29.646Z,96084.13
2017-09-27T04:04:58.709Z,96086.48
2017-09-27T04:07:27.748Z,96082.84
2017-09-27T04:09:56.814Z,96079.16
2017-09-27T04:12:25.856Z,96076.66
2017-09-27T04:14:54.927Z,96077.05
2017-09-27T04:17:23.974Z,96075.52
2017-09-27T04:19:53.043Z,96076.35
2017-09-27T04:22:22.062Z,96077.63
2017-09-27T04:24:51.104Z,96080.48
2017-09-27T04:27:20.239Z,96077.34
2017-09-27T04:29:49.276Z,96086.05
2017-09-27T04:32:18.391Z,96083.50
2017-09-27T04:34:47.461Z,96083.33
2017-09-27T04:37:17.474Z,96081.23
2017-09-27T04:39:46.551Z,96085.60
2017-09-27T04:42:15.575Z,96088.00
2017-09-27T04:44:44.642Z,96088.98
2017-09-27T04:47:13.697Z,96094.28
2017-09-27T04:49:42.754Z,96094.08
2017-09-27T04:52:11.779Z,96103.45
2017-09-27T04:54:40.839Z,96101.58
2017-09-27T04:57:10.931Z,96102.33
2017-09-27T04:59:39.992Z,96105.47
2017-09-27T05:02:09.057Z,96105.48
2017-09-27T05:04:38.106Z,96108.94
2017-09-27T05:07:07.157Z,96108.48
2017-09-27T05:09:36.246Z,96106.67
2017-09-27T05:12:05.355Z,96112.64
2017-09-27T05:14:34.466Z,96115.69
2017-09-27T05:17:03.529Z,96115.77
2017-09-27T05:19:32.602Z,96116.61
2017-09-27T05:22:01.876Z,96116.75
2017-09-27T05:24:31.807Z,96120.68
2017-09-27T05:27:00.903Z,96123.77
2017-09-27T05:29:30.366Z,96128.18
2017-09-27T05:32:00.699Z,96129.58
2017-09-27T05:34:31.251Z,96127.52
2017-09-27T05:37:00.307Z,96124.10
2017-09-27T05:39:29.379Z,96126.30
2017-09-27T05:41:58.460Z,96127.42
2017-09-27T05:44:27.517Z,96129.78
2017-09-27T05:46:56.823Z,96126.39
2017-09-27T05:49:25.865Z,96123.08
2017-09-27T05:51:54.927Z,96115.92
2017-09-27T05:54:23.985Z,96120.77
2017-09-27T05:56:53.040Z,96119.38
2017-09-27T05:59:22.109Z,96121.76
2017-09-27T06:01:51.159Z,96126.36
2017-09-27T06:04:20.229Z,96132.02
2017-09-27T06:06:49.285Z,96132.70
2017-09-27T06:09:18.369Z,96139.52
2017-09-27T06:11:47.417Z,96139.78
2017-09-27T06:14:16.462Z,96138.70
2017-09-27T06:16:45.519Z,96140.17
2017-09-27T06:19:14.656Z,96145.61
2017-09-27T06:21:43.682Z,96143.64
2017-09-27T06:24:12.780Z,96143.45
2017-09-27T06:26:41.862Z,96147.04
2017-09-27T06:29:10.919Z,96147.39
2017-09-27T06:31:39.963Z,96155.23
2017-09-27T06:34:09.047Z,96157.16
2017-09-27T06:36:38.106Z,96159.72
2017-09-27T06:39:08.247Z,96164.45
2017-09-27T06:41:37.296Z,96169.31
2017-09-27T06:44:06.394Z,96170.30
2017-09-27T06:46:35.478Z,96169.06
2017-09-27T06:49:04.527Z,96173.67
2017-09-27T06:51:33.579Z,96172.02
2017-09-27T06:54:02.630Z,96173.03
2017-09-27T06:56:31.703Z,96170.91
2017-09-27T06:59:00.751Z,96166.81
2017-09-27T07:01:29.817Z,96167.80
2017-09-27T07:03:58.878Z,96170.60
2017-09-27T07:06:27.939Z,96166.04
2017-09-27T07:08:56.987Z,96167.75
2017-09-27T07:11:26.037Z,96169.66
2017-09-27T07:13:55.095Z,96169.47
2017-09-27T07:16:24.183Z,96176.95
2017-09-27T07:18:53.243Z,96169.95
2017-09-27T07:21:22.286Z,96176.55
2017-09-27T07:23:51.354Z,96174.23
2017-09-27T07:26:20.406Z,96173.99
2017-09-27T07:28:49.463Z,96172.14
2017-09-27T07:31:18.510Z,96181.91
2017-09-27T07:33:47.619Z,96184.47
2017-09-27T07:36:16.689Z,96186.73
2017-09-27T07:38:45.813Z,96185.77
2017-09-27T07:41:14.877Z,96189.36
2017-09-27T07:43:43.931Z,96190.56
2017-09-27T07:46:12.997Z,96188.59
2017-09-27T07:48:42.052Z,96191.63
2017-09-27T07:51:11.183Z,96198.42
2017-09-27T07:53:40.623Z,96198.00
2017-09-27T07:56:10.570Z,96193.23
2017-09-27T07:58:39.969Z,96193.19
2017-09-27T08:01:09.045Z,96198.53
2017-09-27T08:03:40.236Z,96198.72
2017-09-27T08:06:09.851Z,96198.65
2017-09-27T08:08:38.932Z,96201.95
2017-09-27T08:11:08.226Z,96205.00
2017-09-27T08:13:38.268Z,96198.36
2017-09-27T08:16:07.327Z,96197.53
2017-09-27T08:18:40.150Z,96198.59
2017-09-27T08:21:10.416Z,96198.19
2017-09-27T08:23:39.475Z,96198.11
2017-09-27T08:26:08.630Z,96199.66
2017-09-27T08:28:38.562Z,96199.95
2017-09-27T08:31:07.654Z,96200.98
2017-09-27T08:33:40.027Z,96203.06
2017-09-27T08:36:09.832Z,96199.59
2017-09-27T08:38:39.915Z,96198.98
2017-09-27T08:41:09.681Z,96201.59
2017-09-27T08:43:38.721Z,96204.48
2017-09-27T08:46:07.791Z,96200.41
2017-09-27T08:48:40.022Z,96200.73
2017-09-27T08:51:09.703Z,96207.53
2017-09-27T08:53:38.746Z,96207.88
2017-09-27T08:56:10.162Z,96204.28
2017-09-27T08:58:39.261Z,96206.05
2017-09-27T09:01:10.641Z,96209.88
2017-09-27T09:03:39.950Z,96209.47
2017-09-27T09:06:08.979Z,96206.90
2017-09-27T09:08:40.966Z,96210.02
2017-09-27T09:11:10.953Z,96209.73
2017-09-27T09:13:39.994Z,96207.31
2017-09-27T09:16:11.606Z,96203.60
2017-09-27T09:18:42.947Z,96206.53
2017-09-27T09:21:14.586Z,96204.34
2017-09-27T09:23:44.409Z,96203.19
2017-09-27T09:26:13.459Z,96204.67
2017-09-27T09:28:44.055Z,96207.08
2017-09-27T09:31:13.871Z,96205.09
2017-09-27T09:33:42.955Z,96204.57
2017-09-27T09:36:13.181Z,96204.97
2017-09-27T09:38:43.234Z,96206.23
2017-09-27T09:41:12.282Z,96214.10
2017-09-27T09:43:42.341Z,96211.50
2017-09-27T09:46:12.144Z,96216.98
2017-09-27T09:48:41.203Z,96211.49
2017-09-27T09:51:11.540Z,96210.10
2017-09-27T09:53:41.295Z,96209.36
2017-09-27T09:56:11.767Z,96207.09
2017-09-27T09:58:41.910Z,96205.31
2017-09-27T10:01:11.652Z,96205.41
2017-09-27T10:03:40.670Z,96204.50
2017-09-27T10:06:10.978Z,96200.22
2017-09-27T10:08:40.027Z,96192.56
2017-09-27T10:11:11.442Z,96189.61
2017-09-27T10:13:41.433Z,96188.36
2017-09-27T10:16:10.505Z,96190.16
2017-09-27T10:18:43.071Z,96185.69
2017-09-27T10:21:12.960Z,96189.64
2017-09-27T10:23:42.014Z,96183.81
2017-09-27T10:26:11.102Z,96186.23
2017-09-27T10:28:44.659Z,96182.81
2017-09-27T10:31:14.722Z,96178.86
2017-09-27T10:33:44.788Z,96177.13
2017-09-27T10:36:14.133Z,96188.91
2017-09-27T10:38:43.170Z,96181.19
2017-09-27T10:41:13.111Z,96184.48
2017-09-27T10:43:42.210Z,96184.20
2017-09-27T10:46:13.839Z,96181.26
2017-09-27T10:48:43.792Z,96185.00
2017-09-27T10:51:12.826Z,96184.86
2017-09-27T10:53:43.673Z,96184.57
2017-09-27T10:56:13.406Z,96186.01
2017-09-27T10:58:42.465Z,96184.73
2017-09-27T11:01:14.483Z,96183.58
2017-09-27T11:03:43.535Z,96176.79
2017-09-27T11:06:13.431Z,96182.37
2017-09-27T11:08:42.617Z,96182.81
2017-09-27T11:11:14.279Z,96180.36
2017-09-27T11:13:43.702Z,96181.19
2017-09-27T11:16:12.930Z,96177.61
2017-09-27T11:18:43.860Z,96178.28
2017-09-27T11:21:14.176Z,96174.33
2017-09-27T11:23:43.194Z,96171.60
2017-09-27T11:26:13.947Z,96170.23
2017-09-27T11:28:44.732Z,96169.83
2017-09-27T11:31:13.791Z,96165.84
2017-09-27T11:33:44.683Z,96163.22
2017-09-27T11:36:14.076Z,96159.38
2017-09-27T11:38:43.204Z,96158.05
2017-09-27T11:41:14.021Z,96147.60
2017-09-27T11:43:43.055Z,96151.32
2017-09-27T11:46:13.439Z,96149.69
2017-09-27T11:48:43.231Z,96149.44
2017-09-27T11:51:12.307Z,96142.80
2017-09-27T11:53:43.047Z,96145.42
2017-09-27T11:56:13.247Z,96147.78
2017-09-27T11:58:42.405Z,96145.00
2017-09-27T12:01:12.371Z,96141.46
2017-09-27T12:03:42.222Z,96139.58
2017-09-27T12:06:11.419Z,96133.47
2017-09-27T12:08:42.596Z,96131.75
2017-09-27T12:11:12.490Z,96130.16
2017-09-27T12:13:41.711Z,96125.85
2017-09-27T12:16:12.202Z,96128.35
2017-09-27T12:18:41.365Z,96130.96
2017-09-27T12:21:10.430Z,96132.14
2017-09-27T12:23:42.307Z,96126.80
2017-09-27T12:26:13.633Z,96129.67
2017-09-27T12:28:43.582Z,96124.83
2017-09-27T12:31:12.900Z,96120.56
2017-09-27T12:33:42.663Z,96119.29
2017-09-27T12:36:11.718Z,96119.84
2017-09-27T12:38:43.618Z,96121.66
2017-09-27T12:41:13.154Z,96118.28
2017-09-27T12:43:42.199Z,96115.33
2017-09-27T12:46:12.902Z,96112.48
2017-09-27T12:48:43.123Z,96109.55
2017-09-27T12:51:12.533Z,96108.41
2017-09-27T12:53:43.146Z,96106.42
2017-09-27T12:56:15.684Z,96106.89
2017-09-27T12:58:44.697Z,96107.47
2017-09-27T13:01:16.075Z,96112.93
2017-09-27T13:03:45.200Z,96113.80
2017-09-27T13:06:15.056Z,96114.47
2017-09-27T13:08:44.705Z,96119.12
2017-09-27T13:11:13.758Z,96120.89
2017-09-27T13:13:45.011Z,96118.84
2017-09-27T13:16:14.691Z,96122.98
2017-09-27T13:18:43.727Z,96126.89
2017-09-27T13:21:14.211Z,96116.13
2017-09-27T13:23:43.910Z,96117.62
2017-09-27T13:26:13.054Z,96113.52
2017-09-27T13:28:43.667Z,96115.95
2017-09-27T13:31:13.564Z,96113.69
2017-09-27T13:33:42.599Z,96111.03
2017-09-27T13:36:13.248Z,96110.27
2017-09-27T13:38:43.094Z,96109.41
2017-09-27T13:41:12.147Z,96111.02
2017-09-27T13:43:42.876Z,96108.83
2017-09-27T13:46:12.846Z,96106.40
2017-09-27T13:48:41.892Z,96106.95
2017-09-27T13:51:12.530Z,96101.91
2017-09-27T13:53:42.230Z,96102.40
2017-09-27T13:56:11.257Z,96097.86
2017-09-27T13:58:44.185Z,96102.03
2017-09-27T14:01:13.996Z,96101.39
2017-09-27T14:03:43.019Z,96095.35
2017-09-27T14:06:12.058Z,96094.16
2017-09-27T14:08:43.211Z,96092.82
2017-09-27T14:11:12.930Z,96083.80
2017-09-27T14:13:41.976Z,96087.58
2017-09-27T14:16:11.548Z,96084.30
2017-09-27T14:18:40.616Z,96083.52
2017-09-27T14:21:11.923Z,96083.67
2017-09-27T14:23:41.585Z,96082.84
2017-09-27T14:26:10.801Z,96082.81
2017-09-27T14:28:43.699Z,96080.91
2017-09-27T14:31:13.421Z,96083.97
2017-09-27T14:33:42.551Z,96082.48
2017-09-27T14:36:12.769Z,96083.28
2017-09-27T14:38:42.631Z,96078.33
2017-09-27T14:41:11.679Z,96075.89
2017-09-27T14:43:42.364Z,96083.36
2017-09-27T14:46:12.035Z,96077.80
2017-09-27T14:48:41.096Z,96083.70
2017-09-27T14:51:12.176Z,96083.97
2017-09-27T14:53:42.237Z,96083.10
2017-09-27T14:56:11.259Z,96080.33
2017-09-27T14:58:42.021Z,96082.39
2017-09-27T15:01:11.044Z,96083.50
2017-09-27T15:03:42.057Z,96078.70
2017-09-27T15:06:11.682Z,96073.23
2017-09-27T15:08:40.703Z,96072.59
2017-09-27T15:11:11.498Z,96071.58
2017-09-27T15:13:41.808Z,96074.21
2017-09-27T15:16:10.846Z,96073.38
2017-09-27T15:18:43.294Z,96079.83
2017-09-27T15:21:13.399Z,96081.63
2017-09-27T15:23:43.443Z,96085.05
2017-09-27T15:26:13.739Z,96084.55
2017-09-27T15:28:43.440Z,96082.19
2017-09-27T15:31:12.593Z,96088.36
2017-09-27T15:33:46.457Z,96088.91
2017-09-27T15:36:16.189Z,96087.69
2017-09-27T15:38:45.234Z,96091.14
2017-09-27T15:41:15.927Z,96093.63
2017-09-27T15:43:46.084Z,96090.70
2017-09-27T15:46:15.139Z,96095.20
2017-09-27T15:48:46.482Z,96093.94
2017-09-27T15:51:15.966Z,96093.16
2017-09-27T15:53:45.116Z,96090.87
2017-09-27T15:56:16.039Z,96091.05
2017-09-27T15:58:45.066Z,96094.83
2017-09-27T16:01:15.113Z,96097.21
2017-09-27T16:03:44.234Z,96096.52
2017-09-27T16:06:14.553Z,96097.02
2017-09-27T16:08:44.711Z,96103.50
2017-09-27T16:11:13.755Z,96101.38
2017-09-27T16:13:44.358Z,96101.54
2017-09-27T16:16:15.336Z,96102.31
2017-09-27T16:18:44.378Z,96110.28
2017-09-27T16:21:14.524Z,96108.31
2017-09-27T16:23:44.595Z,96116.41
2017-09-27T16:26:13.826Z,96115.67
2017-09-27T16:28:44.315Z,96118.98
2017-09-27T16:31:13.429Z,96118.11
2017-09-27T16:33:42.517Z,96118.75
2017-09-27T16:36:12.197Z,96118.32
2017-09-27T16:38:41.312Z,96124.11
2017-09-27T16:41:10.378Z,96121.49
2017-09-27T16:43:42.408Z,96123.04
2017-09-27T16:46:12.326Z,96130.64
2017-09-27T16:48:41.417Z,96132.02
2017-09-27T16:51:11.753Z,96132.34
2017-09-27T16:53:41.545Z,96129.55
2017-09-27T16:56:10.673Z,96133.62
2017-09-27T16:58:41.186Z,96133.20
2017-09-27T17:01:11.109Z,96133.68
2017-09-27T17:03:40.193Z,96136.23
2017-09-27T17:06:10.999Z,96138.47
2017-09-27T17:08:41.259Z,96140.52
2017-09-27T17:11:10.394Z,96140.41
2017-09-27T17:13:41.166Z,96141.84
2017-09-27T17:16:11.297Z,96143.92
2017-09-27T17:18:40.347Z,96142.97
2017-09-27T17:21:11.021Z,96144.87
2017-09-27T17:23:40.798Z,96150.53
2017-09-27T17:26:09.823Z,96155.27
2017-09-27T17:28:40.728Z,96155.03
2017-09-27T17:31:11.759Z,96158.45
2017-09-27T17:33:41.381Z,96163.38
2017-09-27T17:36:13.780Z,96167.42
2017-09-27T17:38:45.404Z,96162.33
2017-09-27T17:41:14.979Z,96158.35
2017-09-27T17:43:44.510Z,96166.19
2017-09-27T17:46:13.536Z,96162.34
2017-09-27T17:48:43.452Z,96165.73
2017-09-27T17:51:12.474Z,96168.90
2017-09-27T17:53:41.512Z,96170.48
2017-09-27T17:56:12.996Z,96169.13
2017-09-27T17:58:43.038Z,96171.63
2017-09-27T18:01:13.218Z,96170.97
2017-09-27T18:03:42.311Z,96172.80
2017-09-27T18:06:17.626Z,96175.42
2017-09-27T18:17:40.544Z,96180.53
2017-09-27T18:20:09.639Z,96175.97
2017-09-27T18:22:41.323Z,96182.66
2017-09-27T18:25:10.678Z,96181.87
2017-09-27T18:27:40.758Z,96181.11
2017-09-27T18:30:09.891Z,96181.87
2017-09-27T18:32:39.915Z,96184.25
2017-09-27T18:35:09.048Z,96190.11
2017-09-27T18:37:38.108Z,96190.92
2017-09-27T18:40:07.181Z,96196.70
2017-09-27T18:42:37.121Z,96198.90
2017-09-27T18:45:07.183Z,96200.84
2017-09-27T18:47:37.223Z,96204.48
2017-09-27T18:50:06.295Z,96206.41
2017-09-27T18:52:35.429Z,96205.30
2017-09-27T18:55:04.476Z,96204.09
2017-09-27T18:57:33.547Z,96202.27
2017-09-27T19:00:02.635Z,96210.16
2017-09-27T19:02:31.726Z,96205.64
2017-09-27T19:05:01.748Z,96203.24
2017-09-27T19:07:30.842Z,96201.73
2017-09-27T19:09:59.890Z,96201.33
2017-09-27T19:12:29.914Z,96205.47
2017-09-27T19:15:00.056Z,96208.16
2017-09-27T19:17:32.795Z,96207.54
2017-09-27T19:20:02.160Z,96207.27
2017-09-27T19:22:31.540Z,96205.45
2017-09-27T19:25:03.471Z,96213.39
2017-09-27T19:27:32.614Z,96207.75
2017-09-27T19:30:01.655Z,96210.23
2017-09-27T19:32:31.784Z,96215.25
2017-09-27T19:35:02.518Z,96216.49
2017-09-27T19:37:32.650Z,96221.27
2017-09-27T19:40:01.832Z,96219.17
2017-09-27T19:42:30.923Z,96221.50
2017-09-27T19:44:59.971Z,96222.34
2017-09-27T19:47:29.646Z,96225.14
2017-09-27T19:49:58.746Z,96226.27
2017-09-27T19:52:29.418Z,96231.20
2017-09-27T19:54:58.495Z,96228.56
2017-09-27T19:57:27.694Z,96229.05
2017-09-27T19:59:56.779Z,96229.88
2017-09-27T20:02:25.855Z,96228.36
2017-09-27T20:04:55.583Z,96226.75
2017-09-27T20:07:24.690Z,96222.97
2017-09-27T20:09:55.555Z,96227.73
2017-09-27T20:12:24.634Z,96224.50
2017-09-27T20:14:53.686Z,96224.47
2017-09-27T20:17:22.831Z,96222.89
2017-09-27T20:19:51.891Z,96219.95
2017-09-27T20:22:20.947Z,96219.77
2017-09-27T20:24:49.991Z,96222.25
2017-09-27T20:27:19.175Z,96220.90
2017-09-27T20:29:48.215Z,96218.39
2017-09-27T20:32:17.273Z,96218.41
2017-09-27T20:34:46.355Z,96223.55
2017-09-27T20:37:15.443Z,96220.50
2017-09-27T20:39:44.489Z,96222.67
2017-09-27T20:42:13.653Z,96226.03
2017-09-27T20:44:43.692Z,96227.20
2017-09-27T20:47:12.740Z,96227.03
2017-09-27T20:49:41.798Z,96229.63
2017-09-27T20:52:10.834Z,96229.89
2017-09-27T20:54:39.906Z,96232.12
2017-09-27T20:57:08.957Z,96234.31
2017-09-27T20:59:37.995Z,96240.77
2017-09-27T21:02:07.074Z,96243.95
2017-09-27T21:07:15.095Z,96242.91
2017-09-27T21:09:44.170Z,96244.81
2017-09-27T21:12:13.451Z,96246.01
2017-09-27T21:14:42.482Z,96244.44
2017-09-27T21:17:11.535Z,96242.98
2017-09-27T21:19:40.604Z,96243.31
2017-09-27T21:22:09.642Z,96251.11
2017-09-27T21:24:38.679Z,96251.39
2017-09-27T21:27:07.710Z,96247.66
2017-09-27T21:29:36.769Z,96255.39
2017-09-27T21:32:06.113Z,96256.52
2017-09-27T21:34:35.167Z,96257.86
2017-09-27T21:37:04.468Z,96259.30
2017-09-27T21:39:33.495Z,96256.20
2017-09-27T21:42:02.541Z,96254.56
2017-09-27T21:44:31.632Z,96256.67
2017-09-27T21:47:00.681Z,96259.34
2017-09-27T21:49:29.718Z,96258.45
2017-09-27T21:51:59.697Z,96262.73
2017-09-27T21:54:29.638Z,96262.53
2017-09-27T21:56:58.682Z,96259.47
2017-09-27T21:59:27.747Z,96264.89
2017-09-27T22:01:56.859Z,96260.14
2017-09-27T22:04:26.571Z,96255.62
2017-09-27T22:06:56.950Z,96250.86
2017-09-27T22:09:26.921Z,96251.41
2017-09-27T22:11:56.042Z,96253.25
2017-09-27T22:14:27.726Z,96251.95
2017-09-27T22:16:58.261Z,96252.20
2017-09-27T22:19:27.741Z,96251.50
2017-09-27T22:21:56.875Z,96240.58
2017-09-27T22:24:26.124Z,96247.19
2017-09-27T22:26:55.520Z,96247.45
2017-09-27T22:29:25.210Z,96253.24
2017-09-27T22:31:54.263Z,96248.88
2017-09-27T22:34:24.160Z,96255.55
2017-09-27T22:36:53.188Z,96258.61
2017-09-27T22:39:24.931Z,96261.70
2017-09-27T22:41:54.398Z,96271.09
2017-09-27T22:44:23.569Z,96268.23
2017-09-27T22:46:54.154Z,96273.55
2017-09-27T22:49:23.672Z,96268.20
2017-09-27T22:51:56.169Z,96269.50
2017-09-27T22:54:27.574Z,96273.95
2017-09-27T22:56:57.304Z,96280.70
2017-09-27T22:59:26.342Z,96280.77
2017-09-27T23:01:56.933Z,96281.56
2017-09-27T23:04:26.030Z,96281.03
2017-09-27T23:06:56.643Z,96281.72
2017-09-27T23:09:26.246Z,96282.81
2017-09-27T23:11:55.267Z,96282.44
2017-09-27T23:14:25.226Z,96282.03
2017-09-27T23:16:54.295Z,96279.09
2017-09-27T23:19:24.346Z,96279.79
2017-09-27T23:21:55.639Z,96279.11
2017-09-27T23:24:24.705Z,96278.55
2017-09-27T23:26:53.746Z,96277.30
2017-09-27T23:29:22.802Z,96277.17
2017-09-27T23:31:51.887Z,96283.81
2017-09-27T23:34:20.922Z,96281.24
2017-09-27T23:36:49.999Z,96281.06
2017-09-27T23:39:20.071Z,96281.22
2017-09-27T23:41:49.110Z,96280.50
2017-09-27T23:44:18.158Z,96281.25
2017-09-27T23:46:47.294Z,96281.17
2017-09-27T23:49:17.231Z,96287.09
2017-09-27T23:51:46.286Z,96285.42
2017-09-27T23:54:15.707Z,96283.30
2017-09-27T23:56:44.758Z,96280.28
2017-09-27T23:59:13.790Z,96280.86
